createdAt,value
2022-08-03T00:02:54.181Z,21.70
2022-08-03T00:06:37.310Z,21.70
2022-08-03T00:10:19.530Z,21.70
2022-08-03T00:14:01.418Z,21.60
2022-08-03T00:17:52.665Z,21.60
2022-08-03T00:21:35.577Z,21.60
2022-08-03T00:25:17.804Z,21.50
2022-08-03T00:28:59.707Z,21.50
2022-08-03T00:32:45.103Z,21.40
2022-08-03T00:36:27.754Z,21.40
2022-08-03T00:40:12.369Z,21.30
2022-08-03T00:43:54.149Z,21.30
2022-08-03T00:47:35.942Z,21.20
2022-08-03T00:51:18.743Z,21.20
2022-08-03T00:55:01.589Z,21.20
2022-08-03T00:58:46.551Z,21.10
2022-08-03T01:02:31.419Z,21.10
2022-08-03T01:06:18.102Z,21.10
2022-08-03T01:10:11.893Z,21.10
2022-08-03T01:14:01.685Z,21.00
2022-08-03T01:18:22.764Z,21.00
2022-08-03T01:22:31.022Z,21.00
2022-08-03T01:26:14.735Z,20.90
2022-08-03T01:30:04.695Z,20.90
2022-08-03T01:33:50.008Z,20.90
2022-08-03T01:37:58.943Z,21.00
2022-08-03T01:41:44.653Z,21.00
2022-08-03T01:45:26.478Z,21.00
2022-08-03T01:49:10.747Z,21.00
2022-08-03T01:52:52.521Z,21.00
2022-08-03T01:56:34.341Z,21.00
2022-08-03T02:00:16.559Z,21.00
2022-08-03T02:04:01.494Z,21.00
2022-08-03T02:07:43.304Z,21.00
2022-08-03T02:11:25.131Z,20.90
2022-08-03T02:15:07.465Z,21.00
2022-08-03T02:18:50.457Z,21.00
2022-08-03T02:22:33.566Z,21.00
2022-08-03T02:26:17.055Z,21.00
2022-08-03T02:30:00.418Z,21.00
2022-08-03T02:33:44.786Z,21.00
2022-08-03T02:37:29.027Z,21.10
2022-08-03T02:41:17.014Z,21.00
2022-08-03T02:45:00.245Z,21.00
2022-08-03T02:48:43.267Z,21.10
2022-08-03T02:52:28.213Z,21.10
2022-08-03T02:56:09.970Z,21.10
2022-08-03T02:59:52.176Z,21.10
2022-08-03T03:03:40.012Z,21.10
2022-08-03T03:07:26.901Z,21.10
2022-08-03T03:11:11.194Z,21.10
2022-08-03T03:14:53.025Z,21.10
2022-08-03T03:18:35.034Z,21.10
2022-08-03T03:22:17.067Z,21.10
2022-08-03T03:25:59.067Z,21.10
2022-08-03T03:29:41.055Z,21.10
2022-08-03T03:33:23.060Z,21.00
2022-08-03T03:37:05.268Z,21.00
2022-08-03T03:40:47.234Z,21.00
2022-08-03T03:44:30.391Z,21.00
2022-08-03T03:48:12.201Z,21.00
2022-08-03T03:51:56.993Z,21.00
2022-08-03T03:56:02.163Z,21.00
2022-08-03T03:59:44.006Z,21.00
2022-08-03T04:03:25.871Z,20.90
2022-08-03T04:07:25.977Z,20.90
2022-08-03T04:11:32.021Z,20.90
2022-08-03T04:15:14.018Z,20.90
2022-08-03T04:19:52.006Z,20.90
2022-08-03T04:23:34.990Z,20.90
2022-08-03T04:27:18.258Z,20.90
2022-08-03T04:31:20.566Z,20.90
2022-08-03T04:35:02.390Z,20.90
2022-08-03T04:39:05.074Z,20.80
2022-08-03T04:42:46.907Z,20.90
2022-08-03T04:46:37.431Z,20.90
2022-08-03T04:51:16.007Z,20.90
2022-08-03T04:54:57.911Z,20.90
2022-08-03T04:58:58.825Z,20.90
2022-08-03T05:02:40.670Z,21.00
2022-08-03T05:06:25.088Z,21.00
2022-08-03T05:10:44.743Z,21.00
2022-08-03T05:14:28.100Z,21.00
2022-08-03T05:19:06.693Z,21.10
2022-08-03T05:22:48.946Z,21.10
2022-08-03T05:26:30.801Z,21.10
2022-08-03T05:30:35.590Z,21.10
2022-08-03T05:34:17.437Z,21.10
2022-08-03T05:37:59.242Z,21.20
2022-08-03T05:41:41.082Z,21.20
2022-08-03T05:45:27.924Z,21.20
2022-08-03T05:50:06.405Z,21.20
2022-08-03T05:53:48.258Z,21.20
2022-08-03T05:57:30.061Z,21.20
2022-08-03T06:01:12.121Z,21.20
2022-08-03T06:05:05.272Z,21.20
2022-08-03T06:08:48.805Z,21.10
2022-08-03T06:12:31.160Z,21.10
2022-08-03T06:16:12.986Z,21.10
2022-08-03T06:20:51.408Z,21.10
2022-08-03T06:24:34.159Z,21.10
2022-08-03T06:28:51.739Z,21.10
2022-08-03T06:32:22.809Z,21.10
2022-08-03T06:36:04.970Z,21.10
2022-08-03T06:40:07.086Z,21.10
2022-08-03T06:44:03.411Z,21.10
2022-08-03T06:47:46.131Z,21.20
2022-08-03T06:52:05.155Z,21.20
2022-08-03T06:55:53.927Z,21.30
2022-08-03T07:00:10.872Z,21.30
2022-08-03T07:03:38.045Z,21.40
2022-08-03T07:07:34.153Z,21.50
2022-08-03T07:11:17.048Z,21.50
2022-08-03T07:15:02.353Z,21.50
2022-08-03T07:18:45.981Z,21.50
2022-08-03T07:22:28.422Z,21.50
2022-08-03T07:26:10.274Z,21.50
2022-08-03T07:29:52.122Z,21.60
2022-08-03T07:33:34.040Z,21.60
2022-08-03T07:37:15.934Z,21.60
2022-08-03T07:41:16.725Z,21.70
2022-08-03T07:44:58.768Z,21.70
2022-08-03T07:48:40.760Z,21.70
2022-08-03T07:52:40.925Z,21.80
2022-08-03T07:56:23.178Z,21.80
2022-08-03T08:00:12.600Z,21.90
2022-08-03T08:03:54.567Z,22.00
2022-08-03T08:07:36.582Z,22.10
2022-08-03T08:11:18.429Z,22.10
2022-08-03T08:15:00.258Z,22.20
2022-08-03T08:19:02.070Z,22.40
2022-08-03T08:22:44.102Z,22.50
2022-08-03T08:26:26.403Z,22.60
2022-08-03T08:30:12.330Z,22.80
2022-08-03T08:34:04.373Z,22.90
2022-08-03T08:37:51.075Z,23.00
2022-08-03T08:41:36.339Z,23.10
2022-08-03T08:45:19.388Z,23.20
2022-08-03T08:49:04.778Z,23.30
2022-08-03T08:52:50.454Z,23.30
2022-08-03T08:56:32.279Z,23.40
2022-08-03T09:00:14.953Z,23.40
2022-08-03T09:03:56.824Z,23.40
2022-08-03T09:07:38.874Z,23.40
2022-08-03T09:11:57.589Z,23.50
2022-08-03T09:15:28.372Z,23.60
2022-08-03T09:20:03.520Z,23.70
2022-08-03T09:24:02.299Z,23.90
2022-08-03T09:27:46.234Z,24.00
2022-08-03T09:31:47.949Z,24.10
2022-08-03T09:35:53.490Z,24.10
2022-08-03T09:40:09.421Z,24.20
2022-08-03T09:43:56.872Z,24.30
2022-08-03T09:47:44.857Z,24.50
2022-08-03T09:51:33.198Z,24.70
2022-08-03T09:56:35.604Z,24.80
2022-08-03T09:59:31.755Z,24.80
2022-08-03T10:03:13.535Z,24.90
2022-08-03T10:07:09.456Z,25.10
2022-08-03T10:11:29.225Z,25.10
2022-08-03T10:16:22.447Z,25.10
2022-08-03T10:20:12.030Z,25.10
2022-08-03T10:23:53.956Z,25.00
2022-08-03T10:27:38.815Z,24.90
2022-08-03T10:32:17.107Z,24.90
2022-08-03T10:35:59.006Z,24.90
2022-08-03T10:40:04.921Z,24.90
2022-08-03T10:43:53.330Z,24.80
2022-08-03T10:47:35.262Z,24.70
2022-08-03T10:52:32.759Z,24.60
2022-08-03T10:56:52.030Z,24.60
2022-08-03T11:01:11.275Z,24.50
2022-08-03T11:05:26.355Z,24.30
2022-08-03T11:09:29.283Z,24.20
2022-08-03T11:13:11.383Z,24.10
2022-08-03T11:17:14.102Z,24.10
2022-08-03T11:21:38.331Z,24.10
2022-08-03T11:25:54.428Z,24.00
2022-08-03T11:29:29.862Z,23.90
2022-08-03T11:33:11.960Z,23.80
2022-08-03T11:37:22.507Z,23.80
2022-08-03T11:41:42.948Z,23.80
2022-08-03T11:45:27.357Z,23.80
2022-08-03T11:49:31.000Z,23.70
2022-08-03T11:53:13.998Z,23.70
2022-08-03T11:56:55.886Z,23.70
2022-08-03T12:01:07.732Z,23.60
2022-08-03T12:04:53.511Z,23.60
2022-08-03T12:08:35.390Z,23.50
2022-08-03T12:12:17.255Z,23.50
2022-08-03T12:16:01.609Z,23.50
2022-08-03T12:19:44.858Z,23.40
2022-08-03T12:23:26.590Z,23.30
2022-08-03T12:27:08.430Z,23.30
2022-08-03T12:31:11.195Z,23.20
2022-08-03T12:34:53.039Z,23.20
2022-08-03T12:39:33.557Z,23.20
2022-08-03T12:43:15.619Z,23.40
2022-08-03T12:47:03.427Z,23.80
2022-08-03T12:50:53.607Z,24.00
2022-08-03T12:54:36.114Z,24.20
2022-08-03T12:58:34.014Z,24.30
2022-08-03T13:02:17.711Z,24.40
2022-08-03T13:05:59.674Z,24.50
2022-08-03T13:09:48.079Z,24.50
2022-08-03T13:13:39.679Z,24.50
2022-08-03T13:17:21.830Z,24.50
2022-08-03T13:21:05.862Z,24.30
2022-08-03T13:24:48.730Z,24.20
2022-08-03T13:28:31.642Z,24.20
2022-08-03T13:32:13.525Z,24.20
2022-08-03T13:35:55.466Z,24.30
2022-08-03T13:39:58.238Z,24.40
2022-08-03T13:43:40.226Z,24.50
2022-08-03T13:47:22.275Z,24.80
2022-08-03T13:51:22.076Z,24.80
2022-08-03T13:55:05.745Z,24.70
2022-08-03T13:58:47.689Z,24.70
2022-08-03T14:02:29.547Z,24.70
2022-08-03T14:06:11.390Z,24.90
2022-08-03T14:09:53.356Z,25.10
2022-08-03T14:13:35.121Z,25.50
2022-08-03T14:17:17.025Z,25.90
2022-08-03T14:21:03.362Z,26.40
2022-08-03T14:24:47.473Z,26.90
2022-08-03T14:28:29.392Z,27.30
2022-08-03T14:32:13.456Z,27.60
2022-08-03T14:35:55.504Z,27.80
2022-08-03T14:43:40.299Z,27.90
2022-08-03T14:49:02.621Z,27.90
2022-08-03T14:51:53.602Z,27.90
2022-08-03T14:55:38.969Z,28.10
2022-08-03T14:59:55.538Z,28.20
2022-08-03T15:03:34.645Z,28.50
2022-08-03T15:07:16.398Z,28.80
2022-08-03T15:10:59.240Z,28.90
2022-08-03T15:14:40.939Z,28.90
2022-08-03T15:18:22.942Z,29.10
2022-08-03T15:22:04.805Z,29.30
2022-08-03T15:26:29.165Z,29.30
2022-08-03T15:30:05.629Z,29.30
2022-08-03T15:33:50.619Z,29.30
2022-08-03T15:37:32.395Z,29.10
2022-08-03T15:41:14.624Z,28.90
2022-08-03T15:44:56.384Z,28.80
2022-08-03T15:48:40.075Z,28.80
2022-08-03T15:52:21.917Z,28.90
2022-08-03T15:56:09.678Z,29.00
2022-08-03T15:59:52.722Z,29.00
2022-08-03T16:03:34.650Z,29.00
2022-08-03T16:07:36.366Z,29.20
2022-08-03T16:11:18.443Z,29.70
2022-08-03T16:15:01.474Z,31.00
2022-08-03T16:18:44.426Z,32.40
2022-08-03T16:22:26.218Z,32.80
2022-08-03T16:26:09.225Z,32.80
2022-08-03T16:29:51.420Z,32.60
2022-08-03T16:33:33.507Z,32.70
2022-08-03T16:37:37.710Z,33.50
2022-08-03T16:41:17.362Z,34.30
2022-08-03T16:44:59.094Z,35.50
2022-08-03T16:48:40.954Z,36.60
2022-08-03T16:52:23.003Z,37.60
2022-08-03T16:56:09.909Z,38.50
2022-08-03T16:59:52.484Z,38.60
2022-08-03T17:03:57.100Z,38.50
2022-08-03T17:07:38.355Z,38.70
2022-08-03T17:11:20.424Z,39.30
2022-08-03T17:15:02.198Z,39.80
2022-08-03T17:19:01.972Z,40.20
2022-08-03T17:22:50.199Z,40.40
2022-08-03T17:26:34.408Z,40.60
2022-08-03T17:30:18.921Z,40.70
2022-08-03T17:34:01.863Z,40.80
2022-08-03T17:37:57.522Z,40.70
2022-08-03T17:41:50.629Z,40.90
2022-08-03T17:45:51.902Z,41.20
2022-08-03T17:49:40.006Z,40.90
2022-08-03T17:53:31.392Z,39.90
2022-08-03T17:58:02.497Z,38.40
2022-08-03T18:02:11.573Z,36.70
2022-08-03T18:06:11.276Z,35.00
2022-08-03T18:10:06.243Z,33.50
2022-08-03T18:13:57.975Z,32.30
2022-08-03T18:18:02.959Z,31.20
2022-08-03T18:22:03.633Z,30.40
2022-08-03T18:25:53.697Z,29.60
2022-08-03T18:29:39.602Z,28.90
2022-08-03T18:34:19.272Z,28.30
2022-08-03T18:37:25.179Z,27.80
2022-08-03T18:41:15.142Z,27.30
2022-08-03T18:44:59.544Z,26.90
2022-08-03T18:49:21.085Z,26.60
2022-08-03T18:53:15.632Z,26.30
2022-08-03T18:56:59.658Z,26.00
2022-08-03T19:00:54.696Z,25.80
2022-08-03T19:04:46.449Z,25.70
2022-08-03T19:09:21.405Z,25.60
2022-08-03T19:13:18.910Z,25.30
2022-08-03T19:17:14.258Z,25.10
2022-08-03T19:21:03.666Z,24.90
2022-08-03T19:24:57.853Z,24.60
2022-08-03T19:28:40.857Z,24.30
2022-08-03T19:32:24.440Z,24.10
2022-08-03T19:36:10.587Z,24.00
2022-08-03T19:39:56.651Z,23.80
2022-08-03T19:43:53.040Z,23.60
2022-08-03T19:47:37.487Z,23.40
2022-08-03T19:51:58.406Z,23.20
2022-08-03T19:55:21.617Z,23.10
2022-08-03T19:59:03.595Z,22.90
2022-08-03T20:02:55.061Z,22.80
2022-08-03T20:06:36.826Z,22.60
2022-08-03T20:10:18.979Z,22.40
2022-08-03T20:14:00.833Z,22.30
2022-08-03T20:17:59.331Z,22.20
2022-08-03T20:21:43.803Z,22.10
2022-08-03T20:25:37.704Z,22.10
2022-08-03T20:30:05.048Z,22.00
2022-08-03T20:33:48.645Z,21.90
2022-08-03T20:37:31.099Z,21.80
2022-08-03T20:41:13.417Z,21.80
2022-08-03T20:45:05.631Z,21.70
2022-08-03T20:48:49.073Z,21.70
2022-08-03T20:52:32.123Z,21.70
2022-08-03T20:56:14.574Z,21.70
2022-08-03T20:59:56.586Z,21.70
2022-08-03T21:03:41.076Z,21.60
2022-08-03T21:08:06.026Z,21.60
2022-08-03T21:11:48.642Z,21.60
2022-08-03T21:16:11.630Z,21.60
2022-08-03T21:19:34.356Z,21.60
2022-08-03T21:23:40.295Z,21.50
2022-08-03T21:27:20.814Z,21.50
2022-08-03T21:31:02.865Z,21.40
2022-08-03T21:34:45.666Z,21.40
2022-08-03T21:38:29.893Z,21.30
2022-08-03T21:42:12.897Z,21.20
2022-08-03T21:46:05.379Z,21.10
2022-08-03T21:50:05.660Z,21.10
2022-08-03T21:54:02.458Z,21.00
2022-08-03T21:57:51.478Z,20.90
2022-08-03T22:01:35.352Z,20.80
2022-08-03T22:05:18.258Z,20.70
2022-08-03T22:09:11.347Z,20.60
2022-08-03T22:12:53.143Z,20.50
2022-08-03T22:16:34.937Z,20.50
2022-08-03T22:20:17.039Z,20.50
2022-08-03T22:23:59.198Z,20.40
2022-08-03T22:27:42.161Z,20.40
2022-08-03T22:31:30.524Z,20.40
2022-08-03T22:35:26.458Z,20.40
2022-08-03T22:39:08.350Z,20.30
2022-08-03T22:42:51.322Z,20.30
2022-08-03T22:46:34.346Z,20.30
2022-08-03T22:50:31.647Z,20.20
2022-08-03T22:54:15.436Z,20.20
2022-08-03T22:57:57.238Z,20.20
2022-08-03T23:01:39.351Z,20.10
2022-08-03T23:06:00.804Z,20.10
2022-08-03T23:09:33.430Z,20.10
2022-08-03T23:13:16.892Z,20.10
2022-08-03T23:16:59.891Z,20.00
2022-08-03T23:20:41.968Z,20.10
2022-08-03T23:24:30.004Z,20.00
2022-08-03T23:28:14.577Z,19.90
2022-08-03T23:31:56.517Z,19.80
2022-08-03T23:36:27.676Z,19.80
2022-08-03T23:39:59.112Z,19.70
2022-08-03T23:43:50.950Z,19.60
2022-08-03T23:47:46.374Z,19.50
2022-08-03T23:51:41.855Z,19.40
2022-08-03T23:55:57.852Z,19.30
2022-08-03T23:59:56.834Z,19.30
